Briefing drone pour Arpajon-sur-cere

Rechercher une autre localisation

Conditions de vol :


Nous sommes le : Jeudi 30 juin 2022
Il est 19:05 UTC (21:05 LT)

Lever de soleil : 03:41 UTC (05:41 LT)
Coucher de soleil : 20:06 UTC (22:06 LT)

Météo

L'essentiel des conditions de vol

VIGILANCE MÉTÉO FRANCE - Cantal (15)
Pas de vigilances particulieres
METAR de LFLW
LFLW 301900Z AUTO 28003KT 250V320 CAVOK 12/11 Q1019 BECMG 4000 BR

Date d'émission: 30/06/2022
Heure d'émission: 19:00 UTC
Vent: 280° (variable du 250° au 320°) pour 3 KT (6 km/h)
Visibilité horizontale: > 10 km
Plafond : Plafond et visibilité OK (CAVOK)
Température: 12 °C
Point de rosée: 11 °C
Humidité: 94%
Pression (QNH): 1019 hPa

Devenant:

Visibilité horizontale : 4000 m
Conditions : Brume
Prévision 24h pour Aurillac (1 km)
Vent : 330° pour 2 KT (7 km/h)
Temperature Maxi: 22 °C
Temperature Min: 22 °C
Humidité : 26%
Condition : Ciel dégagé



Warning: count(): Parameter must be an array or an object that implements Countable in /homepages/6/d509196549/htdocs/droneoxygene/briefing.php on line 743
WEBCAM POUR ARPAJON-SUR-CERE

Réglementation

Voler en sécurité

CARTES AERONAUTIQUE 1/500.000
CARTES VAC (LFLW)
SUP AIP




Chargement des AIP...
NOTAM (ARPAJON-SUR-CERE + Terrain à proximité / FIR )




Chargement des NOTAMS...
CONTACT PREFECTURE 15


Avertissement : Les données mises à disposition sont indicatives. Oxygène Drone ne pourra être tenu responsable de dégâts causés aux biens et aux personnes.